sensor_id;sensor_type;location;lat;lon;timestamp;P1;durP1;ratioP1;P2;durP2;ratioP2
36359;SDS011;22388;52.432;20.662;2023-02-15T00:01:20;89.15;;;55.65;;
36359;SDS011;22388;52.432;20.662;2023-02-15T00:03:47;94.07;;;57.13;;
36359;SDS011;22388;52.432;20.662;2023-02-15T00:06:13;86.30;;;52.95;;
36359;SDS011;22388;52.432;20.662;2023-02-15T00:08:39;85.82;;;53.38;;
36359;SDS011;22388;52.432;20.662;2023-02-15T00:13:35;95.65;;;57.00;;
36359;SDS011;22388;52.432;20.662;2023-02-15T00:16:04;99.72;;;58.20;;
36359;SDS011;22388;52.432;20.662;2023-02-15T00:18:31;89.55;;;57.70;;
36359;SDS011;22388;52.432;20.662;2023-02-15T00:20:57;87.78;;;55.20;;
36359;SDS011;22388;52.432;20.662;2023-02-15T00:23:23;99.43;;;56.83;;
36359;SDS011;22388;52.432;20.662;2023-02-15T00:25:49;94.28;;;57.83;;
36359;SDS011;22388;52.432;20.662;2023-02-15T00:28:15;102.40;;;57.92;;
36359;SDS011;22388;52.432;20.662;2023-02-15T00:30:41;83.00;;;51.03;;
36359;SDS011;22388;52.432;20.662;2023-02-15T00:33:06;111.65;;;66.75;;
36359;SDS011;22388;52.432;20.662;2023-02-15T00:35:32;115.90;;;64.68;;
36359;SDS011;22388;52.432;20.662;2023-02-15T00:37:57;109.53;;;63.03;;
36359;SDS011;22388;52.432;20.662;2023-02-15T00:40:23;110.03;;;62.53;;
36359;SDS011;22388;52.432;20.662;2023-02-15T00:42:49;115.18;;;66.70;;
36359;SDS011;22388;52.432;20.662;2023-02-15T00:45:14;115.70;;;63.10;;
36359;SDS011;22388;52.432;20.662;2023-02-15T00:47:40;117.05;;;66.68;;
36359;SDS011;22388;52.432;20.662;2023-02-15T00:50:05;125.25;;;67.78;;
36359;SDS011;22388;52.432;20.662;2023-02-15T00:52:31;119.07;;;66.13;;
36359;SDS011;22388;52.432;20.662;2023-02-15T00:54:57;112.65;;;63.22;;
36359;SDS011;22388;52.432;20.662;2023-02-15T00:57:22;117.40;;;65.78;;
36359;SDS011;22388;52.432;20.662;2023-02-15T00:59:48;114.55;;;65.13;;
36359;SDS011;22388;52.432;20.662;2023-02-15T01:02:14;115.78;;;65.45;;
36359;SDS011;22388;52.432;20.662;2023-02-15T01:04:40;116.63;;;65.15;;
36359;SDS011;22388;52.432;20.662;2023-02-15T01:07:05;115.15;;;66.53;;
36359;SDS011;22388;52.432;20.662;2023-02-15T01:09:31;119.22;;;67.43;;
36359;SDS011;22388;52.432;20.662;2023-02-15T01:11:56;109.55;;;63.78;;
36359;SDS011;22388;52.432;20.662;2023-02-15T01:14:22;111.43;;;64.68;;
36359;SDS011;22388;52.432;20.662;2023-02-15T01:16:47;109.60;;;63.35;;
36359;SDS011;22388;52.432;20.662;2023-02-15T01:19:13;111.75;;;63.83;;
36359;SDS011;22388;52.432;20.662;2023-02-15T01:21:38;106.20;;;61.83;;
36359;SDS011;22388;52.432;20.662;2023-02-15T01:24:10;108.47;;;62.05;;
36359;SDS011;22388;52.432;20.662;2023-02-15T01:26:38;107.15;;;60.50;;
36359;SDS011;22388;52.432;20.662;2023-02-15T01:29:04;105.72;;;60.22;;
36359;SDS011;22388;52.432;20.662;2023-02-15T01:31:30;108.40;;;62.83;;
36359;SDS011;22388;52.432;20.662;2023-02-15T01:33:55;108.15;;;61.20;;
36359;SDS011;22388;52.432;20.662;2023-02-15T01:36:21;107.47;;;63.55;;
36359;SDS011;22388;52.432;20.662;2023-02-15T01:38:46;105.95;;;59.35;;
36359;SDS011;22388;52.432;20.662;2023-02-15T01:41:13;100.75;;;57.00;;
36359;SDS011;22388;52.432;20.662;2023-02-15T01:46:20;109.18;;;61.70;;
36359;SDS011;22388;52.432;20.662;2023-02-15T01:48:50;115.72;;;63.88;;
36359;SDS011;22388;52.432;20.662;2023-02-15T01:51:20;101.97;;;62.75;;
36359;SDS011;22388;52.432;20.662;2023-02-15T01:54:05;104.95;;;56.35;;
36359;SDS011;22388;52.432;20.662;2023-02-15T01:56:54;95.85;;;56.13;;
36359;SDS011;22388;52.432;20.662;2023-02-15T01:59:21;102.72;;;59.95;;
36359;SDS011;22388;52.432;20.662;2023-02-15T02:01:49;103.82;;;60.63;;
36359;SDS011;22388;52.432;20.662;2023-02-15T02:06:47;117.45;;;64.05;;
36359;SDS011;22388;52.432;20.662;2023-02-15T02:09:14;104.03;;;60.63;;
36359;SDS011;22388;52.432;20.662;2023-02-15T02:11:40;92.25;;;57.13;;
36359;SDS011;22388;52.432;20.662;2023-02-15T02:14:06;96.05;;;56.05;;
36359;SDS011;22388;52.432;20.662;2023-02-15T02:16:37;103.35;;;59.20;;
36359;SDS011;22388;52.432;20.662;2023-02-15T02:27:21;103.65;;;60.30;;
36359;SDS011;22388;52.432;20.662;2023-02-15T02:30:11;103.57;;;59.45;;
36359;SDS011;22388;52.432;20.662;2023-02-15T02:38:10;104.32;;;59.58;;
36359;SDS011;22388;52.432;20.662;2023-02-15T02:46:02;97.57;;;55.75;;
36359;SDS011;22388;52.432;20.662;2023-02-15T02:50:57;107.45;;;56.33;;
36359;SDS011;22388;52.432;20.662;2023-02-15T02:53:23;107.53;;;58.55;;
36359;SDS011;22388;52.432;20.662;2023-02-15T02:55:56;102.00;;;57.40;;
36359;SDS011;22388;52.432;20.662;2023-02-15T02:58:31;103.30;;;57.17;;
36359;SDS011;22388;52.432;20.662;2023-02-15T03:01:21;98.18;;;56.55;;
36359;SDS011;22388;52.432;20.662;2023-02-15T03:04:05;102.15;;;58.72;;
36359;SDS011;22388;52.432;20.662;2023-02-15T03:06:50;103.90;;;57.08;;
36359;SDS011;22388;52.432;20.662;2023-02-15T03:09:31;112.53;;;60.50;;
36359;SDS011;22388;52.432;20.662;2023-02-15T03:12:11;103.30;;;58.72;;
36359;SDS011;22388;52.432;20.662;2023-02-15T03:14:41;107.43;;;59.15;;
36359;SDS011;22388;52.432;20.662;2023-02-15T03:17:10;102.30;;;56.08;;
36359;SDS011;22388;52.432;20.662;2023-02-15T03:19:37;100.32;;;55.75;;
36359;SDS011;22388;52.432;20.662;2023-02-15T03:22:14;104.30;;;57.50;;
36359;SDS011;22388;52.432;20.662;2023-02-15T03:25:05;102.43;;;58.25;;
36359;SDS011;22388;52.432;20.662;2023-02-15T03:27:36;96.07;;;55.83;;
36359;SDS011;22388;52.432;20.662;2023-02-15T03:30:04;107.70;;;57.10;;
36359;SDS011;22388;52.432;20.662;2023-02-15T03:32:31;110.25;;;60.58;;
36359;SDS011;22388;52.432;20.662;2023-02-15T03:34:57;115.05;;;59.15;;
36359;SDS011;22388;52.432;20.662;2023-02-15T03:37:32;110.13;;;59.80;;
36359;SDS011;22388;52.432;20.662;2023-02-15T03:43:11;94.13;;;52.10;;
36359;SDS011;22388;52.432;20.662;2023-02-15T03:45:42;101.35;;;55.47;;
36359;SDS011;22388;52.432;20.662;2023-02-15T03:48:27;100.03;;;56.33;;
36359;SDS011;22388;52.432;20.662;2023-02-15T03:51:05;108.35;;;56.85;;
36359;SDS011;22388;52.432;20.662;2023-02-15T03:53:51;126.05;;;65.03;;
36359;SDS011;22388;52.432;20.662;2023-02-15T03:56:17;121.88;;;63.88;;
36359;SDS011;22388;52.432;20.662;2023-02-15T03:58:43;101.63;;;57.22;;
36359;SDS011;22388;52.432;20.662;2023-02-15T04:01:34;100.03;;;55.25;;
36359;SDS011;22388;52.432;20.662;2023-02-15T04:04:21;103.53;;;55.80;;
36359;SDS011;22388;52.432;20.662;2023-02-15T04:06:48;108.93;;;59.97;;
36359;SDS011;22388;52.432;20.662;2023-02-15T04:09:13;104.03;;;57.03;;
36359;SDS011;22388;52.432;20.662;2023-02-15T04:11:57;94.45;;;53.75;;
36359;SDS011;22388;52.432;20.662;2023-02-15T04:14:23;100.28;;;56.55;;
36359;SDS011;22388;52.432;20.662;2023-02-15T04:17:08;110.95;;;57.58;;
36359;SDS011;22388;52.432;20.662;2023-02-15T04:19:34;100.55;;;56.03;;
36359;SDS011;22388;52.432;20.662;2023-02-15T04:22:18;103.85;;;55.03;;
36359;SDS011;22388;52.432;20.662;2023-02-15T04:25:02;103.03;;;58.50;;
36359;SDS011;22388;52.432;20.662;2023-02-15T04:27:35;108.13;;;55.47;;
36359;SDS011;22388;52.432;20.662;2023-02-15T04:30:03;97.47;;;56.50;;
36359;SDS011;22388;52.432;20.662;2023-02-15T04:32:29;109.80;;;56.45;;
36359;SDS011;22388;52.432;20.662;2023-02-15T04:34:55;106.45;;;56.88;;
36359;SDS011;22388;52.432;20.662;2023-02-15T04:37:20;104.40;;;54.53;;
36359;SDS011;22388;52.432;20.662;2023-02-15T04:39:46;105.63;;;58.05;;
36359;SDS011;22388;52.432;20.662;2023-02-15T04:42:12;99.70;;;54.85;;
36359;SDS011;22388;52.432;20.662;2023-02-15T04:44:37;93.70;;;51.63;;
36359;SDS011;22388;52.432;20.662;2023-02-15T04:47:03;95.10;;;51.60;;
36359;SDS011;22388;52.432;20.662;2023-02-15T04:49:28;84.45;;;47.47;;
36359;SDS011;22388;52.432;20.662;2023-02-15T04:51:54;86.45;;;46.25;;
36359;SDS011;22388;52.432;20.662;2023-02-15T04:54:20;75.70;;;41.75;;
36359;SDS011;22388;52.432;20.662;2023-02-15T04:56:45;77.18;;;43.75;;
36359;SDS011;22388;52.432;20.662;2023-02-15T04:59:11;80.72;;;46.95;;
36359;SDS011;22388;52.432;20.662;2023-02-15T05:01:37;77.65;;;44.25;;
36359;SDS011;22388;52.432;20.662;2023-02-15T05:04:03;82.10;;;44.20;;
36359;SDS011;22388;52.432;20.662;2023-02-15T05:06:28;80.13;;;45.22;;
36359;SDS011;22388;52.432;20.662;2023-02-15T05:08:54;80.72;;;46.35;;
36359;SDS011;22388;52.432;20.662;2023-02-15T05:11:20;79.68;;;45.35;;
36359;SDS011;22388;52.432;20.662;2023-02-15T05:13:46;81.60;;;46.05;;
36359;SDS011;22388;52.432;20.662;2023-02-15T05:16:11;83.85;;;46.17;;
36359;SDS011;22388;52.432;20.662;2023-02-15T05:18:37;82.00;;;45.00;;
36359;SDS011;22388;52.432;20.662;2023-02-15T05:21:03;83.82;;;45.60;;
36359;SDS011;22388;52.432;20.662;2023-02-15T05:23:29;79.80;;;43.42;;
36359;SDS011;22388;52.432;20.662;2023-02-15T05:25:54;70.35;;;40.40;;
36359;SDS011;22388;52.432;20.662;2023-02-15T05:28:38;65.35;;;38.08;;
36359;SDS011;22388;52.432;20.662;2023-02-15T05:31:05;67.15;;;38.72;;
36359;SDS011;22388;52.432;20.662;2023-02-15T05:33:33;69.40;;;40.92;;
36359;SDS011;22388;52.432;20.662;2023-02-15T05:35:59;68.18;;;41.42;;
36359;SDS011;22388;52.432;20.662;2023-02-15T05:38:25;76.05;;;43.78;;
36359;SDS011;22388;52.432;20.662;2023-02-15T05:40:51;76.35;;;41.58;;
36359;SDS011;22388;52.432;20.662;2023-02-15T05:43:17;69.32;;;41.00;;
36359;SDS011;22388;52.432;20.662;2023-02-15T05:45:46;71.93;;;42.67;;
36359;SDS011;22388;52.432;20.662;2023-02-15T05:48:16;77.82;;;42.30;;
36359;SDS011;22388;52.432;20.662;2023-02-15T05:50:42;67.88;;;41.05;;
36359;SDS011;22388;52.432;20.662;2023-02-15T05:53:08;66.65;;;38.35;;
36359;SDS011;22388;52.432;20.662;2023-02-15T05:55:34;70.97;;;41.65;;
36359;SDS011;22388;52.432;20.662;2023-02-15T05:58:03;78.78;;;45.22;;
36359;SDS011;22388;52.432;20.662;2023-02-15T06:00:28;72.18;;;41.97;;
36359;SDS011;22388;52.432;20.662;2023-02-15T06:02:54;70.25;;;40.95;;
36359;SDS011;22388;52.432;20.662;2023-02-15T06:05:20;72.38;;;42.13;;
36359;SDS011;22388;52.432;20.662;2023-02-15T06:07:45;69.07;;;40.53;;
36359;SDS011;22388;52.432;20.662;2023-02-15T06:10:11;74.20;;;42.22;;
36359;SDS011;22388;52.432;20.662;2023-02-15T06:12:36;67.43;;;40.40;;
36359;SDS011;22388;52.432;20.662;2023-02-15T06:15:02;72.55;;;42.35;;
36359;SDS011;22388;52.432;20.662;2023-02-15T06:17:28;67.45;;;42.67;;
36359;SDS011;22388;52.432;20.662;2023-02-15T06:19:54;69.05;;;42.03;;
36359;SDS011;22388;52.432;20.662;2023-02-15T06:22:20;77.28;;;43.83;;
36359;SDS011;22388;52.432;20.662;2023-02-15T06:24:46;67.80;;;41.88;;
36359;SDS011;22388;52.432;20.662;2023-02-15T06:27:11;67.75;;;41.58;;
36359;SDS011;22388;52.432;20.662;2023-02-15T06:29:37;68.57;;;43.28;;
36359;SDS011;22388;52.432;20.662;2023-02-15T06:32:03;70.53;;;42.65;;
36359;SDS011;22388;52.432;20.662;2023-02-15T06:34:29;72.45;;;44.15;;
36359;SDS011;22388;52.432;20.662;2023-02-15T06:36:55;72.88;;;43.30;;
36359;SDS011;22388;52.432;20.662;2023-02-15T06:39:21;64.25;;;40.25;;
36359;SDS011;22388;52.432;20.662;2023-02-15T06:41:46;60.03;;;39.30;;
36359;SDS011;22388;52.432;20.662;2023-02-15T06:44:12;64.53;;;39.90;;
36359;SDS011;22388;52.432;20.662;2023-02-15T06:46:37;61.78;;;39.90;;
36359;SDS011;22388;52.432;20.662;2023-02-15T06:49:03;61.92;;;39.10;;
36359;SDS011;22388;52.432;20.662;2023-02-15T06:51:29;54.67;;;36.10;;
36359;SDS011;22388;52.432;20.662;2023-02-15T06:53:54;56.40;;;35.83;;
36359;SDS011;22388;52.432;20.662;2023-02-15T06:56:20;54.53;;;35.13;;
36359;SDS011;22388;52.432;20.662;2023-02-15T06:58:45;55.10;;;34.35;;
36359;SDS011;22388;52.432;20.662;2023-02-15T07:01:13;57.60;;;36.45;;
36359;SDS011;22388;52.432;20.662;2023-02-15T07:03:39;51.42;;;35.08;;
36359;SDS011;22388;52.432;20.662;2023-02-15T07:06:04;56.53;;;38.03;;
36359;SDS011;22388;52.432;20.662;2023-02-15T07:08:33;58.72;;;35.58;;
36359;SDS011;22388;52.432;20.662;2023-02-15T07:10:59;61.88;;;36.80;;
36359;SDS011;22388;52.432;20.662;2023-02-15T07:13:44;57.60;;;37.63;;
36359;SDS011;22388;52.432;20.662;2023-02-15T07:16:09;65.05;;;38.97;;
36359;SDS011;22388;52.432;20.662;2023-02-15T07:18:35;58.08;;;37.97;;
36359;SDS011;22388;52.432;20.662;2023-02-15T07:21:01;58.85;;;37.72;;
36359;SDS011;22388;52.432;20.662;2023-02-15T07:23:27;59.53;;;38.42;;
36359;SDS011;22388;52.432;20.662;2023-02-15T07:25:59;69.05;;;38.38;;
36359;SDS011;22388;52.432;20.662;2023-02-15T07:28:25;69.60;;;40.13;;
36359;SDS011;22388;52.432;20.662;2023-02-15T07:30:51;65.05;;;38.72;;
36359;SDS011;22388;52.432;20.662;2023-02-15T07:33:16;62.55;;;39.25;;
36359;SDS011;22388;52.432;20.662;2023-02-15T07:35:48;55.75;;;37.15;;
36359;SDS011;22388;52.432;20.662;2023-02-15T07:38:27;56.67;;;36.60;;
36359;SDS011;22388;52.432;20.662;2023-02-15T07:41:02;58.40;;;37.65;;
36359;SDS011;22388;52.432;20.662;2023-02-15T07:43:29;52.53;;;35.83;;
36359;SDS011;22388;52.432;20.662;2023-02-15T07:45:59;55.97;;;35.55;;
36359;SDS011;22388;52.432;20.662;2023-02-15T07:48:25;53.72;;;36.60;;
36359;SDS011;22388;52.432;20.662;2023-02-15T07:50:51;57.15;;;35.85;;
36359;SDS011;22388;52.432;20.662;2023-02-15T07:53:17;54.80;;;36.83;;
36359;SDS011;22388;52.432;20.662;2023-02-15T07:55:42;58.08;;;36.13;;
36359;SDS011;22388;52.432;20.662;2023-02-15T07:58:08;55.65;;;36.13;;
36359;SDS011;22388;52.432;20.662;2023-02-15T08:00:33;54.17;;;35.28;;
36359;SDS011;22388;52.432;20.662;2023-02-15T08:03:19;51.28;;;33.83;;
36359;SDS011;22388;52.432;20.662;2023-02-15T08:05:45;53.47;;;34.13;;
36359;SDS011;22388;52.432;20.662;2023-02-15T08:08:11;56.45;;;35.30;;
36359;SDS011;22388;52.432;20.662;2023-02-15T08:11:01;54.65;;;35.25;;
36359;SDS011;22388;52.432;20.662;2023-02-15T08:13:46;57.83;;;36.13;;
36359;SDS011;22388;52.432;20.662;2023-02-15T08:16:19;56.03;;;34.80;;
36359;SDS011;22388;52.432;20.662;2023-02-15T08:18:49;58.50;;;36.03;;
36359;SDS011;22388;52.432;20.662;2023-02-15T08:21:14;55.22;;;35.35;;
36359;SDS011;22388;52.432;20.662;2023-02-15T08:23:40;52.72;;;35.35;;
36359;SDS011;22388;52.432;20.662;2023-02-15T08:26:06;56.65;;;35.42;;
36359;SDS011;22388;52.432;20.662;2023-02-15T08:28:31;58.25;;;35.67;;
36359;SDS011;22388;52.432;20.662;2023-02-15T08:31:04;54.78;;;35.75;;
36359;SDS011;22388;52.432;20.662;2023-02-15T08:33:30;56.45;;;34.70;;
36359;SDS011;22388;52.432;20.662;2023-02-15T08:35:56;56.38;;;34.67;;
36359;SDS011;22388;52.432;20.662;2023-02-15T08:38:22;56.53;;;36.38;;
36359;SDS011;22388;52.432;20.662;2023-02-15T08:40:48;53.38;;;33.35;;
36359;SDS011;22388;52.432;20.662;2023-02-15T08:43:14;53.40;;;34.72;;
36359;SDS011;22388;52.432;20.662;2023-02-15T08:45:40;55.38;;;35.22;;
36359;SDS011;22388;52.432;20.662;2023-02-15T08:48:07;56.10;;;34.20;;
36359;SDS011;22388;52.432;20.662;2023-02-15T08:50:33;59.85;;;34.33;;
36359;SDS011;22388;52.432;20.662;2023-02-15T08:52:58;56.67;;;34.33;;
36359;SDS011;22388;52.432;20.662;2023-02-15T08:55:24;55.17;;;35.08;;
36359;SDS011;22388;52.432;20.662;2023-02-15T08:57:49;51.80;;;32.70;;
36359;SDS011;22388;52.432;20.662;2023-02-15T09:00:15;52.13;;;34.10;;
36359;SDS011;22388;52.432;20.662;2023-02-15T09:02:41;52.90;;;33.30;;
36359;SDS011;22388;52.432;20.662;2023-02-15T09:05:07;48.65;;;32.72;;
36359;SDS011;22388;52.432;20.662;2023-02-15T09:07:32;51.13;;;33.05;;
36359;SDS011;22388;52.432;20.662;2023-02-15T09:09:58;54.67;;;33.05;;
36359;SDS011;22388;52.432;20.662;2023-02-15T09:12:23;54.08;;;33.92;;
36359;SDS011;22388;52.432;20.662;2023-02-15T09:14:49;48.42;;;31.85;;
36359;SDS011;22388;52.432;20.662;2023-02-15T09:17:14;50.50;;;32.45;;
36359;SDS011;22388;52.432;20.662;2023-02-15T09:19:40;52.95;;;33.60;;
36359;SDS011;22388;52.432;20.662;2023-02-15T09:22:05;53.58;;;34.38;;
36359;SDS011;22388;52.432;20.662;2023-02-15T09:24:32;51.30;;;32.58;;
36359;SDS011;22388;52.432;20.662;2023-02-15T09:27:00;48.70;;;32.85;;
36359;SDS011;22388;52.432;20.662;2023-02-15T09:29:29;55.28;;;34.30;;
36359;SDS011;22388;52.432;20.662;2023-02-15T09:31:55;55.22;;;34.33;;
36359;SDS011;22388;52.432;20.662;2023-02-15T09:34:21;49.05;;;32.53;;
36359;SDS011;22388;52.432;20.662;2023-02-15T09:36:47;50.10;;;31.70;;
36359;SDS011;22388;52.432;20.662;2023-02-15T09:39:17;46.92;;;30.05;;
36359;SDS011;22388;52.432;20.662;2023-02-15T10:06:35;46.85;;;30.08;;
36359;SDS011;22388;52.432;20.662;2023-02-15T10:12:03;49.92;;;31.23;;
36359;SDS011;22388;52.432;20.662;2023-02-15T10:20:28;41.92;;;29.00;;
36359;SDS011;22388;52.432;20.662;2023-02-15T10:28:26;42.78;;;29.95;;
36359;SDS011;22388;52.432;20.662;2023-02-15T10:31:28;52.08;;;31.55;;
36359;SDS011;22388;52.432;20.662;2023-02-15T10:43:25;54.55;;;33.72;;
36359;SDS011;22388;52.432;20.662;2023-02-15T10:46:00;51.53;;;33.22;;
36359;SDS011;22388;52.432;20.662;2023-02-15T11:06:21;48.35;;;31.35;;
36359;SDS011;22388;52.432;20.662;2023-02-15T11:08:40;48.00;;;31.98;;
36359;SDS011;22388;52.432;20.662;2023-02-15T11:11:10;51.38;;;32.70;;
36359;SDS011;22388;52.432;20.662;2023-02-15T11:13:46;52.30;;;33.28;;
36359;SDS011;22388;52.432;20.662;2023-02-15T11:16:18;52.00;;;30.90;;
36359;SDS011;22388;52.432;20.662;2023-02-15T11:18:51;52.35;;;32.63;;
36359;SDS011;22388;52.432;20.662;2023-02-15T11:21:21;49.50;;;30.25;;
36359;SDS011;22388;52.432;20.662;2023-02-15T11:23:49;49.63;;;31.17;;
36359;SDS011;22388;52.432;20.662;2023-02-15T11:29:07;51.72;;;32.28;;
36359;SDS011;22388;52.432;20.662;2023-02-15T11:31:47;52.03;;;29.58;;
36359;SDS011;22388;52.432;20.662;2023-02-15T11:34:27;54.88;;;30.27;;
36359;SDS011;22388;52.432;20.662;2023-02-15T11:36:54;52.60;;;30.98;;
36359;SDS011;22388;52.432;20.662;2023-02-15T11:39:21;55.72;;;29.60;;
36359;SDS011;22388;52.432;20.662;2023-02-15T11:41:53;56.60;;;31.75;;
36359;SDS011;22388;52.432;20.662;2023-02-15T11:44:22;55.38;;;30.50;;
36359;SDS011;22388;52.432;20.662;2023-02-15T11:46:51;50.35;;;30.33;;
36359;SDS011;22388;52.432;20.662;2023-02-15T11:51:45;56.22;;;31.92;;
36359;SDS011;22388;52.432;20.662;2023-02-15T11:54:11;59.88;;;32.05;;
36359;SDS011;22388;52.432;20.662;2023-02-15T11:56:36;71.82;;;43.25;;
36359;SDS011;22388;52.432;20.662;2023-02-15T11:59:12;57.03;;;32.08;;
36359;SDS011;22388;52.432;20.662;2023-02-15T12:01:44;62.65;;;33.33;;
36359;SDS011;22388;52.432;20.662;2023-02-15T12:04:32;62.40;;;32.10;;
36359;SDS011;22388;52.432;20.662;2023-02-15T12:07:01;54.95;;;30.98;;
36359;SDS011;22388;52.432;20.662;2023-02-15T12:09:36;57.20;;;32.33;;
36359;SDS011;22388;52.432;20.662;2023-02-15T12:14:56;50.40;;;30.85;;
36359;SDS011;22388;52.432;20.662;2023-02-15T12:17:26;54.25;;;29.75;;
36359;SDS011;22388;52.432;20.662;2023-02-15T12:19:57;64.30;;;36.88;;
36359;SDS011;22388;52.432;20.662;2023-02-15T12:22:30;53.35;;;31.90;;
36359;SDS011;22388;52.432;20.662;2023-02-15T12:24:59;83.22;;;45.90;;
36359;SDS011;22388;52.432;20.662;2023-02-15T12:27:27;55.40;;;32.95;;
36359;SDS011;22388;52.432;20.662;2023-02-15T12:29:58;58.97;;;32.63;;
36359;SDS011;22388;52.432;20.662;2023-02-15T12:32:33;59.53;;;32.95;;
36359;SDS011;22388;52.432;20.662;2023-02-15T12:35:01;51.90;;;31.35;;
36359;SDS011;22388;52.432;20.662;2023-02-15T12:37:33;50.55;;;29.45;;
36359;SDS011;22388;52.432;20.662;2023-02-15T12:40:00;54.10;;;31.92;;
36359;SDS011;22388;52.432;20.662;2023-02-15T12:42:40;57.83;;;34.83;;
36359;SDS011;22388;52.432;20.662;2023-02-15T12:45:29;62.17;;;35.03;;
36359;SDS011;22388;52.432;20.662;2023-02-15T12:50:43;58.42;;;32.97;;
36359;SDS011;22388;52.432;20.662;2023-02-15T12:53:17;71.00;;;39.47;;
36359;SDS011;22388;52.432;20.662;2023-02-15T12:55:58;66.45;;;36.05;;
36359;SDS011;22388;52.432;20.662;2023-02-15T12:58:25;62.63;;;34.88;;
36359;SDS011;22388;52.432;20.662;2023-02-15T13:01:02;67.72;;;39.03;;
36359;SDS011;22388;52.432;20.662;2023-02-15T13:03:37;67.60;;;37.58;;
36359;SDS011;22388;52.432;20.662;2023-02-15T13:06:04;61.03;;;34.47;;
36359;SDS011;22388;52.432;20.662;2023-02-15T13:08:34;58.58;;;34.78;;
36359;SDS011;22388;52.432;20.662;2023-02-15T13:13:36;56.22;;;31.70;;
36359;SDS011;22388;52.432;20.662;2023-02-15T13:16:12;59.08;;;34.63;;
36359;SDS011;22388;52.432;20.662;2023-02-15T13:18:42;62.88;;;35.90;;
36359;SDS011;22388;52.432;20.662;2023-02-15T13:23:36;70.15;;;38.45;;
36359;SDS011;22388;52.432;20.662;2023-02-15T13:26:04;60.67;;;37.15;;
36359;SDS011;22388;52.432;20.662;2023-02-15T13:28:41;55.38;;;32.60;;
36359;SDS011;22388;52.432;20.662;2023-02-15T13:31:19;54.58;;;32.20;;
36359;SDS011;22388;52.432;20.662;2023-02-15T13:33:52;62.55;;;34.38;;
36359;SDS011;22388;52.432;20.662;2023-02-15T13:44:36;63.85;;;35.28;;
36359;SDS011;22388;52.432;20.662;2023-02-15T13:52:18;62.65;;;35.90;;
36359;SDS011;22388;52.432;20.662;2023-02-15T13:58:24;60.30;;;32.47;;
36359;SDS011;22388;52.432;20.662;2023-02-15T14:00:56;57.25;;;34.40;;
36359;SDS011;22388;52.432;20.662;2023-02-15T14:15:15;59.45;;;33.45;;
36359;SDS011;22388;52.432;20.662;2023-02-15T14:28:51;59.50;;;33.65;;
36359;SDS011;22388;52.432;20.662;2023-02-15T14:31:33;60.47;;;34.00;;
36359;SDS011;22388;52.432;20.662;2023-02-15T14:34:01;60.58;;;35.55;;
36359;SDS011;22388;52.432;20.662;2023-02-15T14:36:29;60.35;;;35.28;;
36359;SDS011;22388;52.432;20.662;2023-02-15T14:41:53;58.30;;;33.35;;
36359;SDS011;22388;52.432;20.662;2023-02-15T14:44:28;63.63;;;35.05;;
36359;SDS011;22388;52.432;20.662;2023-02-15T14:47:10;63.92;;;33.92;;
36359;SDS011;22388;52.432;20.662;2023-02-15T14:49:43;57.13;;;33.03;;
36359;SDS011;22388;52.432;20.662;2023-02-15T14:52:09;54.72;;;32.90;;
36359;SDS011;22388;52.432;20.662;2023-02-15T15:05:19;53.78;;;30.65;;
36359;SDS011;22388;52.432;20.662;2023-02-15T15:07:52;62.90;;;33.22;;
36359;SDS011;22388;52.432;20.662;2023-02-15T15:17:57;56.78;;;32.80;;
36359;SDS011;22388;52.432;20.662;2023-02-15T15:25:44;55.53;;;31.90;;
36359;SDS011;22388;52.432;20.662;2023-02-15T15:42:13;63.25;;;34.90;;
36359;SDS011;22388;52.432;20.662;2023-02-15T15:45:16;62.53;;;35.17;;
36359;SDS011;22388;52.432;20.662;2023-02-15T15:47:57;63.80;;;36.03;;
36359;SDS011;22388;52.432;20.662;2023-02-15T15:50:33;69.40;;;36.10;;
36359;SDS011;22388;52.432;20.662;2023-02-15T15:53:00;64.00;;;36.03;;
36359;SDS011;22388;52.432;20.662;2023-02-15T15:55:27;65.38;;;35.97;;
36359;SDS011;22388;52.432;20.662;2023-02-15T15:57:55;66.68;;;37.58;;
36359;SDS011;22388;52.432;20.662;2023-02-15T16:03:22;68.40;;;39.35;;
36359;SDS011;22388;52.432;20.662;2023-02-15T16:05:49;68.60;;;36.15;;
36359;SDS011;22388;52.432;20.662;2023-02-15T16:08:26;82.50;;;50.90;;
36359;SDS011;22388;52.432;20.662;2023-02-15T16:10:57;73.40;;;43.50;;
36359;SDS011;22388;52.432;20.662;2023-02-15T16:13:23;60.92;;;37.33;;
36359;SDS011;22388;52.432;20.662;2023-02-15T16:15:51;66.40;;;38.30;;
36359;SDS011;22388;52.432;20.662;2023-02-15T16:18:19;74.38;;;39.70;;
36359;SDS011;22388;52.432;20.662;2023-02-15T16:20:57;70.32;;;40.80;;
36359;SDS011;22388;52.432;20.662;2023-02-15T16:23:47;73.65;;;42.13;;
36359;SDS011;22388;52.432;20.662;2023-02-15T16:29:26;71.57;;;39.63;;
36359;SDS011;22388;52.432;20.662;2023-02-15T16:32:01;65.00;;;37.38;;
36359;SDS011;22388;52.432;20.662;2023-02-15T16:34:28;67.95;;;38.97;;
36359;SDS011;22388;52.432;20.662;2023-02-15T16:37:17;65.35;;;36.25;;
36359;SDS011;22388;52.432;20.662;2023-02-15T16:39:44;63.88;;;37.88;;
36359;SDS011;22388;52.432;20.662;2023-02-15T16:42:10;70.68;;;38.20;;
36359;SDS011;22388;52.432;20.662;2023-02-15T16:44:36;72.07;;;40.08;;
36359;SDS011;22388;52.432;20.662;2023-02-15T16:47:02;78.72;;;41.00;;
36359;SDS011;22388;52.432;20.662;2023-02-15T16:49:28;74.70;;;42.22;;
36359;SDS011;22388;52.432;20.662;2023-02-15T16:52:04;80.88;;;43.28;;
36359;SDS011;22388;52.432;20.662;2023-02-15T16:54:31;76.28;;;43.00;;
36359;SDS011;22388;52.432;20.662;2023-02-15T16:56:57;83.82;;;47.03;;
36359;SDS011;22388;52.432;20.662;2023-02-15T17:02:12;77.95;;;41.40;;
36359;SDS011;22388;52.432;20.662;2023-02-15T17:04:41;74.22;;;39.80;;
36359;SDS011;22388;52.432;20.662;2023-02-15T17:07:17;71.75;;;40.08;;
36359;SDS011;22388;52.432;20.662;2023-02-15T17:09:50;77.55;;;41.63;;
36359;SDS011;22388;52.432;20.662;2023-02-15T17:15:24;72.93;;;39.33;;
36359;SDS011;22388;52.432;20.662;2023-02-15T17:18:16;71.65;;;39.13;;
36359;SDS011;22388;52.432;20.662;2023-02-15T17:20:44;80.28;;;37.10;;
36359;SDS011;22388;52.432;20.662;2023-02-15T17:23:28;69.75;;;37.63;;
36359;SDS011;22388;52.432;20.662;2023-02-15T17:25:57;69.20;;;36.63;;
36359;SDS011;22388;52.432;20.662;2023-02-15T17:28:24;67.85;;;35.25;;
36359;SDS011;22388;52.432;20.662;2023-02-15T17:30:51;64.43;;;35.13;;
36359;SDS011;22388;52.432;20.662;2023-02-15T17:33:22;62.80;;;34.53;;
36359;SDS011;22388;52.432;20.662;2023-02-15T17:38:32;61.80;;;33.42;;
36359;SDS011;22388;52.432;20.662;2023-02-15T17:40:57;68.70;;;35.58;;
36359;SDS011;22388;52.432;20.662;2023-02-15T17:43:24;61.65;;;33.78;;
36359;SDS011;22388;52.432;20.662;2023-02-15T17:45:50;64.45;;;33.72;;
36359;SDS011;22388;52.432;20.662;2023-02-15T17:48:37;69.18;;;37.00;;
36359;SDS011;22388;52.432;20.662;2023-02-15T17:51:03;65.93;;;34.95;;